sensor_id;sensor_type;location;lat;lon;timestamp;P1;durP1;ratioP1;P2;durP2;ratioP2
16262;SDS011;8239;48.594;8.598;2022-09-12T00:00:12;27.00;;;14.77;;
16262;SDS011;8239;48.594;8.598;2022-09-12T00:02:40;27.83;;;14.17;;
16262;SDS011;8239;48.594;8.598;2022-09-12T00:05:07;26.43;;;14.93;;
16262;SDS011;8239;48.594;8.598;2022-09-12T00:07:34;27.40;;;15.47;;
16262;SDS011;8239;48.594;8.598;2022-09-12T00:10:03;25.77;;;14.83;;
16262;SDS011;8239;48.594;8.598;2022-09-12T00:12:31;26.67;;;14.80;;
16262;SDS011;8239;48.594;8.598;2022-09-12T00:14:58;26.73;;;14.73;;
16262;SDS011;8239;48.594;8.598;2022-09-12T00:17:25;26.53;;;14.90;;
16262;SDS011;8239;48.594;8.598;2022-09-12T00:19:52;24.03;;;14.27;;
16262;SDS011;8239;48.594;8.598;2022-09-12T00:22:20;30.40;;;15.23;;
16262;SDS011;8239;48.594;8.598;2022-09-12T00:24:47;26.87;;;15.03;;
16262;SDS011;8239;48.594;8.598;2022-09-12T00:27:15;26.27;;;14.10;;
16262;SDS011;8239;48.594;8.598;2022-09-12T00:29:42;26.43;;;14.63;;
16262;SDS011;8239;48.594;8.598;2022-09-12T00:32:09;24.67;;;14.07;;
16262;SDS011;8239;48.594;8.598;2022-09-12T00:34:36;23.90;;;14.10;;
16262;SDS011;8239;48.594;8.598;2022-09-12T00:37:03;25.37;;;14.33;;
16262;SDS011;8239;48.594;8.598;2022-09-12T00:39:30;25.17;;;13.47;;
16262;SDS011;8239;48.594;8.598;2022-09-12T00:41:57;22.83;;;13.87;;
16262;SDS011;8239;48.594;8.598;2022-09-12T00:44:45;25.70;;;13.93;;
16262;SDS011;8239;48.594;8.598;2022-09-12T00:47:22;29.13;;;15.27;;
16262;SDS011;8239;48.594;8.598;2022-09-12T00:49:51;28.10;;;14.50;;
16262;SDS011;8239;48.594;8.598;2022-09-12T00:52:23;26.70;;;15.27;;
16262;SDS011;8239;48.594;8.598;2022-09-12T00:54:56;30.17;;;16.63;;
16262;SDS011;8239;48.594;8.598;2022-09-12T00:57:29;26.00;;;15.07;;
16262;SDS011;8239;48.594;8.598;2022-09-12T01:00:04;31.73;;;16.50;;
16262;SDS011;8239;48.594;8.598;2022-09-12T01:02:39;28.33;;;15.40;;
16262;SDS011;8239;48.594;8.598;2022-09-12T01:05:08;26.17;;;14.73;;
16262;SDS011;8239;48.594;8.598;2022-09-12T01:07:35;28.53;;;15.07;;
16262;SDS011;8239;48.594;8.598;2022-09-12T01:10:03;25.00;;;14.43;;
16262;SDS011;8239;48.594;8.598;2022-09-12T01:12:31;26.43;;;15.10;;
16262;SDS011;8239;48.594;8.598;2022-09-12T01:14:59;25.20;;;14.63;;
16262;SDS011;8239;48.594;8.598;2022-09-12T01:17:29;28.47;;;16.13;;
16262;SDS011;8239;48.594;8.598;2022-09-12T01:26:02;26.10;;;14.10;;
16262;SDS011;8239;48.594;8.598;2022-09-12T01:28:51;30.10;;;15.10;;
16262;SDS011;8239;48.594;8.598;2022-09-12T01:31:34;27.30;;;14.03;;
16262;SDS011;8239;48.594;8.598;2022-09-12T01:34:09;29.60;;;14.53;;
16262;SDS011;8239;48.594;8.598;2022-09-12T01:36:46;24.73;;;14.30;;
16262;SDS011;8239;48.594;8.598;2022-09-12T01:39:26;23.87;;;13.80;;
16262;SDS011;8239;48.594;8.598;2022-09-12T01:42:03;27.27;;;14.33;;
16262;SDS011;8239;48.594;8.598;2022-09-12T01:44:43;32.60;;;16.00;;
16262;SDS011;8239;48.594;8.598;2022-09-12T01:47:17;27.20;;;14.27;;
16262;SDS011;8239;48.594;8.598;2022-09-12T01:49:50;27.50;;;14.93;;
16262;SDS011;8239;48.594;8.598;2022-09-12T01:52:23;23.40;;;13.73;;
16262;SDS011;8239;48.594;8.598;2022-09-12T01:54:56;27.77;;;14.87;;
16262;SDS011;8239;48.594;8.598;2022-09-12T01:57:29;26.07;;;14.37;;
16262;SDS011;8239;48.594;8.598;2022-09-12T02:00:03;22.20;;;13.70;;
16262;SDS011;8239;48.594;8.598;2022-09-12T02:02:34;27.80;;;14.77;;
16262;SDS011;8239;48.594;8.598;2022-09-12T02:05:05;28.63;;;15.43;;
16262;SDS011;8239;48.594;8.598;2022-09-12T02:07:36;30.30;;;14.83;;
16262;SDS011;8239;48.594;8.598;2022-09-12T02:10:06;30.50;;;14.23;;
16262;SDS011;8239;48.594;8.598;2022-09-12T02:12:39;23.53;;;13.30;;
16262;SDS011;8239;48.594;8.598;2022-09-12T02:15:10;25.13;;;13.87;;
16262;SDS011;8239;48.594;8.598;2022-09-12T02:17:41;23.73;;;13.80;;
16262;SDS011;8239;48.594;8.598;2022-09-12T02:20:13;25.13;;;14.70;;
16262;SDS011;8239;48.594;8.598;2022-09-12T02:22:43;24.93;;;13.53;;
16262;SDS011;8239;48.594;8.598;2022-09-12T02:25:12;25.70;;;14.67;;
16262;SDS011;8239;48.594;8.598;2022-09-12T02:27:43;26.97;;;14.57;;
16262;SDS011;8239;48.594;8.598;2022-09-12T02:30:13;23.37;;;13.57;;
16262;SDS011;8239;48.594;8.598;2022-09-12T02:32:44;26.97;;;13.87;;
16262;SDS011;8239;48.594;8.598;2022-09-12T02:35:24;27.07;;;14.50;;
16262;SDS011;8239;48.594;8.598;2022-09-12T02:38:01;30.73;;;15.07;;
16262;SDS011;8239;48.594;8.598;2022-09-12T02:40:32;24.70;;;14.40;;
16262;SDS011;8239;48.594;8.598;2022-09-12T02:43:01;27.53;;;14.20;;
16262;SDS011;8239;48.594;8.598;2022-09-12T02:45:29;25.10;;;14.17;;
16262;SDS011;8239;48.594;8.598;2022-09-12T02:48:00;24.07;;;14.13;;
16262;SDS011;8239;48.594;8.598;2022-09-12T02:50:31;26.73;;;14.20;;
16262;SDS011;8239;48.594;8.598;2022-09-12T02:52:58;26.37;;;13.73;;
16262;SDS011;8239;48.594;8.598;2022-09-12T02:55:29;25.70;;;13.10;;
16262;SDS011;8239;48.594;8.598;2022-09-12T02:57:57;22.47;;;13.40;;
16262;SDS011;8239;48.594;8.598;2022-09-12T03:00:27;21.50;;;12.97;;
16262;SDS011;8239;48.594;8.598;2022-09-12T03:03:05;25.33;;;12.97;;
16262;SDS011;8239;48.594;8.598;2022-09-12T03:05:46;23.50;;;13.40;;
16262;SDS011;8239;48.594;8.598;2022-09-12T03:08:28;27.57;;;14.17;;
16262;SDS011;8239;48.594;8.598;2022-09-12T03:11:24;23.63;;;13.63;;
16262;SDS011;8239;48.594;8.598;2022-09-12T03:13:59;29.77;;;14.73;;
16262;SDS011;8239;48.594;8.598;2022-09-12T03:16:37;25.53;;;13.93;;
16262;SDS011;8239;48.594;8.598;2022-09-12T03:19:15;27.00;;;14.13;;
16262;SDS011;8239;48.594;8.598;2022-09-12T03:21:50;26.67;;;13.97;;
16262;SDS011;8239;48.594;8.598;2022-09-12T03:24:28;26.37;;;13.57;;
16262;SDS011;8239;48.594;8.598;2022-09-12T03:26:59;26.93;;;13.80;;
16262;SDS011;8239;48.594;8.598;2022-09-12T03:29:34;28.90;;;14.63;;
16262;SDS011;8239;48.594;8.598;2022-09-12T03:32:02;24.57;;;13.53;;
16262;SDS011;8239;48.594;8.598;2022-09-12T03:34:30;22.40;;;13.17;;
16262;SDS011;8239;48.594;8.598;2022-09-12T03:36:57;27.43;;;14.23;;
16262;SDS011;8239;48.594;8.598;2022-09-12T03:39:26;25.10;;;13.60;;
16262;SDS011;8239;48.594;8.598;2022-09-12T03:41:53;27.03;;;14.43;;
16262;SDS011;8239;48.594;8.598;2022-09-12T03:44:20;28.33;;;14.80;;
16262;SDS011;8239;48.594;8.598;2022-09-12T03:46:47;37.27;;;15.40;;
16262;SDS011;8239;48.594;8.598;2022-09-12T03:49:14;28.63;;;13.87;;
16262;SDS011;8239;48.594;8.598;2022-09-12T03:51:43;29.57;;;14.27;;
16262;SDS011;8239;48.594;8.598;2022-09-12T03:54:10;28.10;;;15.00;;
16262;SDS011;8239;48.594;8.598;2022-09-12T03:56:37;28.80;;;14.50;;
16262;SDS011;8239;48.594;8.598;2022-09-12T03:59:06;26.60;;;13.90;;
16262;SDS011;8239;48.594;8.598;2022-09-12T04:01:33;29.17;;;13.83;;
16262;SDS011;8239;48.594;8.598;2022-09-12T04:04:01;27.77;;;14.37;;
16262;SDS011;8239;48.594;8.598;2022-09-12T04:06:28;29.73;;;13.90;;
16262;SDS011;8239;48.594;8.598;2022-09-12T04:08:57;26.47;;;13.93;;
16262;SDS011;8239;48.594;8.598;2022-09-12T04:11:24;24.97;;;13.43;;
16262;SDS011;8239;48.594;8.598;2022-09-12T04:13:51;30.83;;;15.13;;
16262;SDS011;8239;48.594;8.598;2022-09-12T04:16:19;24.43;;;12.97;;
16262;SDS011;8239;48.594;8.598;2022-09-12T04:18:46;25.30;;;15.00;;
16262;SDS011;8239;48.594;8.598;2022-09-12T04:21:13;27.13;;;15.67;;
16262;SDS011;8239;48.594;8.598;2022-09-12T04:23:42;23.43;;;14.10;;
16262;SDS011;8239;48.594;8.598;2022-09-12T04:26:11;29.50;;;14.37;;
16262;SDS011;8239;48.594;8.598;2022-09-12T04:28:39;28.73;;;14.87;;
16262;SDS011;8239;48.594;8.598;2022-09-12T04:31:07;25.07;;;13.63;;
16262;SDS011;8239;48.594;8.598;2022-09-12T04:33:36;25.83;;;13.17;;
16262;SDS011;8239;48.594;8.598;2022-09-12T04:36:04;22.40;;;12.43;;
16262;SDS011;8239;48.594;8.598;2022-09-12T04:38:32;24.63;;;12.37;;
16262;SDS011;8239;48.594;8.598;2022-09-12T04:40:59;30.90;;;13.10;;
16262;SDS011;8239;48.594;8.598;2022-09-12T04:43:28;28.40;;;13.23;;
16262;SDS011;8239;48.594;8.598;2022-09-12T04:45:55;27.60;;;12.70;;
16262;SDS011;8239;48.594;8.598;2022-09-12T04:48:22;32.30;;;14.13;;
16262;SDS011;8239;48.594;8.598;2022-09-12T04:50:49;26.83;;;13.33;;
16262;SDS011;8239;48.594;8.598;2022-09-12T04:53:16;26.43;;;13.03;;
16262;SDS011;8239;48.594;8.598;2022-09-12T04:55:43;25.20;;;12.67;;
16262;SDS011;8239;48.594;8.598;2022-09-12T04:58:10;24.73;;;13.10;;
16262;SDS011;8239;48.594;8.598;2022-09-12T05:00:38;25.30;;;13.33;;
16262;SDS011;8239;48.594;8.598;2022-09-12T05:03:05;24.47;;;12.63;;
16262;SDS011;8239;48.594;8.598;2022-09-12T05:05:32;22.90;;;11.67;;
16262;SDS011;8239;48.594;8.598;2022-09-12T05:07:59;22.53;;;11.73;;
16262;SDS011;8239;48.594;8.598;2022-09-12T05:10:26;23.33;;;12.53;;
16262;SDS011;8239;48.594;8.598;2022-09-12T05:12:53;21.10;;;12.03;;
16262;SDS011;8239;48.594;8.598;2022-09-12T05:15:20;21.90;;;11.13;;
16262;SDS011;8239;48.594;8.598;2022-09-12T05:17:50;19.77;;;11.53;;
16262;SDS011;8239;48.594;8.598;2022-09-12T05:20:17;19.20;;;11.63;;
16262;SDS011;8239;48.594;8.598;2022-09-12T05:22:44;20.33;;;11.13;;
16262;SDS011;8239;48.594;8.598;2022-09-12T05:25:11;22.77;;;12.77;;
16262;SDS011;8239;48.594;8.598;2022-09-12T05:27:38;88.53;;;16.30;;
16262;SDS011;8239;48.594;8.598;2022-09-12T05:30:05;211.03;;;20.43;;
16262;SDS011;8239;48.594;8.598;2022-09-12T05:32:33;56.63;;;14.23;;
16262;SDS011;8239;48.594;8.598;2022-09-12T05:35:02;38.20;;;11.60;;
16262;SDS011;8239;48.594;8.598;2022-09-12T05:37:29;19.27;;;11.27;;
16262;SDS011;8239;48.594;8.598;2022-09-12T05:39:56;20.73;;;11.73;;
16262;SDS011;8239;48.594;8.598;2022-09-12T05:42:23;18.10;;;10.73;;
16262;SDS011;8239;48.594;8.598;2022-09-12T05:44:50;20.40;;;11.83;;
16262;SDS011;8239;48.594;8.598;2022-09-12T05:47:18;16.93;;;11.27;;
16262;SDS011;8239;48.594;8.598;2022-09-12T05:49:44;19.03;;;11.43;;
16262;SDS011;8239;48.594;8.598;2022-09-12T05:52:13;18.03;;;11.57;;
16262;SDS011;8239;48.594;8.598;2022-09-12T05:54:40;19.20;;;11.63;;
16262;SDS011;8239;48.594;8.598;2022-09-12T05:57:07;22.67;;;12.03;;
16262;SDS011;8239;48.594;8.598;2022-09-12T05:59:34;20.10;;;11.10;;
16262;SDS011;8239;48.594;8.598;2022-09-12T06:02:01;16.07;;;10.60;;
16262;SDS011;8239;48.594;8.598;2022-09-12T06:04:28;14.53;;;10.10;;
16262;SDS011;8239;48.594;8.598;2022-09-12T06:06:55;14.30;;;9.63;;
16262;SDS011;8239;48.594;8.598;2022-09-12T06:09:24;14.17;;;9.80;;
16262;SDS011;8239;48.594;8.598;2022-09-12T06:11:52;12.47;;;9.23;;
16262;SDS011;8239;48.594;8.598;2022-09-12T06:14:20;12.77;;;9.73;;
16262;SDS011;8239;48.594;8.598;2022-09-12T06:16:47;11.20;;;8.93;;
16262;SDS011;8239;48.594;8.598;2022-09-12T06:19:15;11.80;;;8.53;;
16262;SDS011;8239;48.594;8.598;2022-09-12T06:21:43;8.80;;;7.90;;
16262;SDS011;8239;48.594;8.598;2022-09-12T06:24:11;8.27;;;6.77;;
16262;SDS011;8239;48.594;8.598;2022-09-12T06:26:40;5.53;;;5.03;;
16262;SDS011;8239;48.594;8.598;2022-09-12T06:29:08;4.97;;;4.53;;
16262;SDS011;8239;48.594;8.598;2022-09-12T06:31:37;4.43;;;4.03;;
16262;SDS011;8239;48.594;8.598;2022-09-12T06:34:07;4.18;;;3.88;;
16262;SDS011;8239;48.594;8.598;2022-09-12T06:36:36;3.72;;;3.53;;
16262;SDS011;8239;48.594;8.598;2022-09-12T06:39:05;3.60;;;3.30;;
16262;SDS011;8239;48.594;8.598;2022-09-12T06:41:33;3.50;;;3.20;;
16262;SDS011;8239;48.594;8.598;2022-09-12T06:44:02;3.30;;;3.10;;
16262;SDS011;8239;48.594;8.598;2022-09-12T06:46:32;3.25;;;3.05;;
16262;SDS011;8239;48.594;8.598;2022-09-12T06:48:59;3.38;;;3.15;;
16262;SDS011;8239;48.594;8.598;2022-09-12T06:51:26;3.50;;;3.20;;
16262;SDS011;8239;48.594;8.598;2022-09-12T06:53:54;3.10;;;2.90;;
16262;SDS011;8239;48.594;8.598;2022-09-12T06:56:22;2.97;;;2.75;;
16262;SDS011;8239;48.594;8.598;2022-09-12T06:58:50;2.90;;;2.70;;
16262;SDS011;8239;48.594;8.598;2022-09-12T07:01:19;3.05;;;2.80;;
16262;SDS011;8239;48.594;8.598;2022-09-12T07:03:48;3.08;;;2.80;;
16262;SDS011;8239;48.594;8.598;2022-09-12T07:06:16;2.90;;;2.70;;
16262;SDS011;8239;48.594;8.598;2022-09-12T07:08:45;2.67;;;2.53;;
16262;SDS011;8239;48.594;8.598;2022-09-12T07:11:14;2.50;;;2.40;;
16262;SDS011;8239;48.594;8.598;2022-09-12T07:13:44;2.53;;;2.33;;
16262;SDS011;8239;48.594;8.598;2022-09-12T07:16:12;2.80;;;2.67;;
16262;SDS011;8239;48.594;8.598;2022-09-12T07:18:41;3.75;;;2.38;;
16262;SDS011;8239;48.594;8.598;2022-09-12T07:21:19;2.30;;;2.20;;
16262;SDS011;8239;48.594;8.598;2022-09-12T07:23:47;2.45;;;2.35;;
16262;SDS011;8239;48.594;8.598;2022-09-12T07:26:16;2.30;;;2.20;;
16262;SDS011;8239;48.594;8.598;2022-09-12T07:28:43;2.60;;;2.50;;
16262;SDS011;8239;48.594;8.598;2022-09-12T07:31:11;2.72;;;2.53;;
16262;SDS011;8239;48.594;8.598;2022-09-12T07:33:41;2.92;;;2.83;;
16262;SDS011;8239;48.594;8.598;2022-09-12T07:36:12;2.63;;;2.42;;
16262;SDS011;8239;48.594;8.598;2022-09-12T07:38:40;2.40;;;2.30;;
16262;SDS011;8239;48.594;8.598;2022-09-12T07:41:16;2.40;;;2.30;;
16262;SDS011;8239;48.594;8.598;2022-09-12T07:43:48;2.50;;;2.35;;
16262;SDS011;8239;48.594;8.598;2022-09-12T07:46:17;2.20;;;2.10;;
16262;SDS011;8239;48.594;8.598;2022-09-12T08:32:56;3.22;;;3.03;;
16262;SDS011;8239;48.594;8.598;2022-09-12T08:35:24;3.13;;;2.92;;
16262;SDS011;8239;48.594;8.598;2022-09-12T08:38:01;3.28;;;3.00;;
16262;SDS011;8239;48.594;8.598;2022-09-12T08:40:31;2.88;;;2.63;;
16262;SDS011;8239;48.594;8.598;2022-09-12T08:43:13;3.20;;;3.00;;
16262;SDS011;8239;48.594;8.598;2022-09-12T08:46:12;3.35;;;3.13;;
16262;SDS011;8239;48.594;8.598;2022-09-12T08:48:47;3.17;;;2.97;;
16262;SDS011;8239;48.594;8.598;2022-09-12T08:51:15;3.45;;;3.15;;
16262;SDS011;8239;48.594;8.598;2022-09-12T08:53:46;3.28;;;3.10;;
16262;SDS011;8239;48.594;8.598;2022-09-12T08:56:22;2.90;;;2.70;;
16262;SDS011;8239;48.594;8.598;2022-09-12T08:58:52;3.30;;;3.10;;
16262;SDS011;8239;48.594;8.598;2022-09-12T09:01:21;3.55;;;3.25;;
16262;SDS011;8239;48.594;8.598;2022-09-12T09:07:02;2.95;;;2.85;;
16262;SDS011;8239;48.594;8.598;2022-09-12T09:09:43;3.13;;;2.92;;
16262;SDS011;8239;48.594;8.598;2022-09-12T09:12:25;2.92;;;2.80;;
16262;SDS011;8239;48.594;8.598;2022-09-12T09:15:05;3.10;;;2.90;;
16262;SDS011;8239;48.594;8.598;2022-09-12T09:17:52;2.95;;;2.67;;
16262;SDS011;8239;48.594;8.598;2022-09-12T09:20:25;2.92;;;2.72;;
16262;SDS011;8239;48.594;8.598;2022-09-12T09:22:56;2.83;;;2.60;;
16262;SDS011;8239;48.594;8.598;2022-09-12T09:25:32;2.80;;;2.60;;
16262;SDS011;8239;48.594;8.598;2022-09-12T09:28:06;2.78;;;2.67;;
16262;SDS011;8239;48.594;8.598;2022-09-12T09:30:40;3.10;;;2.90;;
16262;SDS011;8239;48.594;8.598;2022-09-12T09:33:12;3.00;;;2.80;;
16262;SDS011;8239;48.594;8.598;2022-09-12T09:35:48;3.15;;;2.58;;
16262;SDS011;8239;48.594;8.598;2022-09-12T09:38:23;3.08;;;2.78;;
16262;SDS011;8239;48.594;8.598;2022-09-12T09:40:59;2.60;;;2.50;;
16262;SDS011;8239;48.594;8.598;2022-09-12T09:43:38;2.80;;;2.70;;
16262;SDS011;8239;48.594;8.598;2022-09-12T09:46:06;2.53;;;2.42;;
16262;SDS011;8239;48.594;8.598;2022-09-12T09:48:35;2.72;;;2.58;;
16262;SDS011;8239;48.594;8.598;2022-09-12T09:51:06;2.30;;;2.20;;
16262;SDS011;8239;48.594;8.598;2022-09-12T09:53:36;2.53;;;2.42;;
16262;SDS011;8239;48.594;8.598;2022-09-12T09:56:08;2.40;;;2.30;;
16262;SDS011;8239;48.594;8.598;2022-09-12T09:58:38;2.42;;;2.10;;
16262;SDS011;8239;48.594;8.598;2022-09-12T10:01:11;2.10;;;1.90;;
16262;SDS011;8239;48.594;8.598;2022-09-12T10:03:45;1.90;;;1.80;;
16262;SDS011;8239;48.594;8.598;2022-09-12T10:06:23;1.80;;;1.70;;
16262;SDS011;8239;48.594;8.598;2022-09-12T10:09:03;2.05;;;1.90;;
16262;SDS011;8239;48.594;8.598;2022-09-12T10:11:44;1.67;;;1.67;;
16262;SDS011;8239;48.594;8.598;2022-09-12T10:14:25;1.80;;;1.70;;
16262;SDS011;8239;48.594;8.598;2022-09-12T10:19:49;2.10;;;2.00;;
16262;SDS011;8239;48.594;8.598;2022-09-12T10:22:19;1.50;;;1.50;;
16262;SDS011;8239;48.594;8.598;2022-09-12T10:24:48;1.50;;;1.40;;
16262;SDS011;8239;48.594;8.598;2022-09-12T10:27:18;1.50;;;1.40;;
16262;SDS011;8239;48.594;8.598;2022-09-12T10:29:48;1.83;;;1.73;;
16262;SDS011;8239;48.594;8.598;2022-09-12T10:32:20;1.63;;;1.52;;
16262;SDS011;8239;48.594;8.598;2022-09-12T10:34:54;1.65;;;1.55;;
16262;SDS011;8239;48.594;8.598;2022-09-12T10:37:27;1.30;;;1.30;;
16262;SDS011;8239;48.594;8.598;2022-09-12T10:39:57;2.00;;;1.40;;
16262;SDS011;8239;48.594;8.598;2022-09-12T10:42:43;1.20;;;1.20;;
16262;SDS011;8239;48.594;8.598;2022-09-12T10:45:22;1.30;;;1.30;;
16262;SDS011;8239;48.594;8.598;2022-09-12T10:47:53;1.52;;;1.35;;
16262;SDS011;8239;48.594;8.598;2022-09-12T10:50:24;1.10;;;1.10;;
16262;SDS011;8239;48.594;8.598;2022-09-12T10:52:55;1.33;;;1.23;;
16262;SDS011;8239;48.594;8.598;2022-09-12T10:55:40;1.63;;;1.10;;
16262;SDS011;8239;48.594;8.598;2022-09-12T10:58:30;1.65;;;1.30;;
16262;SDS011;8239;48.594;8.598;2022-09-12T11:01:15;1.05;;;1.05;;
16262;SDS011;8239;48.594;8.598;2022-09-12T11:03:56;1.00;;;1.00;;
16262;SDS011;8239;48.594;8.598;2022-09-12T11:06:41;0.90;;;0.90;;
16262;SDS011;8239;48.594;8.598;2022-09-12T11:09:18;0.90;;;0.90;;
16262;SDS011;8239;48.594;8.598;2022-09-12T11:11:55;1.10;;;1.00;;
16262;SDS011;8239;48.594;8.598;2022-09-12T11:14:31;1.85;;;1.08;;
16262;SDS011;8239;48.594;8.598;2022-09-12T11:17:10;1.10;;;1.10;;
16262;SDS011;8239;48.594;8.598;2022-09-12T11:22:42;2.45;;;1.20;;
16262;SDS011;8239;48.594;8.598;2022-09-12T11:25:28;1.10;;;1.10;;
16262;SDS011;8239;48.594;8.598;2022-09-12T11:31:06;1.30;;;1.20;;
16262;SDS011;8239;48.594;8.598;2022-09-12T11:33:56;1.33;;;1.23;;
16262;SDS011;8239;48.594;8.598;2022-09-12T11:36:27;1.10;;;1.10;;
16262;SDS011;8239;48.594;8.598;2022-09-12T11:39:04;1.02;;;1.02;;
16262;SDS011;8239;48.594;8.598;2022-09-12T11:41:40;1.10;;;1.10;;
16262;SDS011;8239;48.594;8.598;2022-09-12T11:44:14;1.23;;;1.10;;
16262;SDS011;8239;48.594;8.598;2022-09-12T11:46:44;0.90;;;0.90;;
16262;SDS011;8239;48.594;8.598;2022-09-12T11:49:16;1.00;;;1.00;;
16262;SDS011;8239;48.594;8.598;2022-09-12T11:51:52;0.90;;;0.90;;
16262;SDS011;8239;48.594;8.598;2022-09-12T11:54:25;1.27;;;1.00;;
16262;SDS011;8239;48.594;8.598;2022-09-12T11:56:59;1.10;;;1.10;;
16262;SDS011;8239;48.594;8.598;2022-09-12T11:59:35;1.23;;;1.13;;
16262;SDS011;8239;48.594;8.598;2022-09-12T12:02:10;0.80;;;0.80;;
16262;SDS011;8239;48.594;8.598;2022-09-12T12:04:40;1.20;;;1.10;;
16262;SDS011;8239;48.594;8.598;2022-09-12T12:07:15;1.15;;;1.00;;
16262;SDS011;8239;48.594;8.598;2022-09-12T12:09:44;1.10;;;1.10;;
16262;SDS011;8239;48.594;8.598;2022-09-12T12:12:16;0.90;;;0.90;;
16262;SDS011;8239;48.594;8.598;2022-09-12T12:14:48;1.15;;;1.05;;
16262;SDS011;8239;48.594;8.598;2022-09-12T12:17:18;0.95;;;0.95;;
16262;SDS011;8239;48.594;8.598;2022-09-12T12:19:55;1.13;;;0.98;;
16262;SDS011;8239;48.594;8.598;2022-09-12T12:22:24;0.98;;;0.95;;
16262;SDS011;8239;48.594;8.598;2022-09-12T12:25:00;1.08;;;0.90;;
16262;SDS011;8239;48.594;8.598;2022-09-12T12:27:47;0.90;;;0.85;;
16262;SDS011;8239;48.594;8.598;2022-09-12T12:36:36;1.15;;;1.15;;
16262;SDS011;8239;48.594;8.598;2022-09-12T12:45:56;0.90;;;0.90;;
16262;SDS011;8239;48.594;8.598;2022-09-12T12:54:26;0.98;;;0.98;;
16262;SDS011;8239;48.594;8.598;2022-09-12T12:57:18;0.90;;;0.90;;
16262;SDS011;8239;48.594;8.598;2022-09-12T13:00:06;0.90;;;0.90;;
16262;SDS011;8239;48.594;8.598;2022-09-12T13:02:54;1.10;;;1.00;;
16262;SDS011;8239;48.594;8.598;2022-09-12T13:05:24;1.00;;;1.00;;
16262;SDS011;8239;48.594;8.598;2022-09-12T13:07:53;0.90;;;0.90;;
16262;SDS011;8239;48.594;8.598;2022-09-12T13:10:24;0.90;;;0.90;;
16262;SDS011;8239;48.594;8.598;2022-09-12T13:12:53;0.93;;;0.93;;
16262;SDS011;8239;48.594;8.598;2022-09-12T13:18:17;1.75;;;0.90;;
16262;SDS011;8239;48.594;8.598;2022-09-12T13:20:50;1.88;;;1.00;;
16262;SDS011;8239;48.594;8.598;2022-09-12T13:23:23;1.08;;;0.93;;
16262;SDS011;8239;48.594;8.598;2022-09-12T13:25:52;1.10;;;1.00;;
16262;SDS011;8239;48.594;8.598;2022-09-12T13:28:20;2.03;;;0.90;;
16262;SDS011;8239;48.594;8.598;2022-09-12T13:30:54;1.00;;;1.00;;
16262;SDS011;8239;48.594;8.598;2022-09-12T13:33:29;0.90;;;0.90;;
16262;SDS011;8239;48.594;8.598;2022-09-12T13:39:13;1.00;;;1.00;;
16262;SDS011;8239;48.594;8.598;2022-09-12T13:41:50;1.58;;;1.20;;
16262;SDS011;8239;48.594;8.598;2022-09-12T13:44:27;1.88;;;1.00;;
16262;SDS011;8239;48.594;8.598;2022-09-12T13:46:56;1.10;;;1.10;;
16262;SDS011;8239;48.594;8.598;2022-09-12T13:49:28;1.10;;;1.00;;
16262;SDS011;8239;48.594;8.598;2022-09-12T13:52:00;0.98;;;0.98;;
16262;SDS011;8239;48.594;8.598;2022-09-12T13:54:29;1.85;;;0.90;;
16262;SDS011;8239;48.594;8.598;2022-09-12T13:56:57;1.00;;;1.00;;
16262;SDS011;8239;48.594;8.598;2022-09-12T13:59:24;1.00;;;1.00;;
16262;SDS011;8239;48.594;8.598;2022-09-12T14:01:52;1.02;;;1.02;;
16262;SDS011;8239;48.594;8.598;2022-09-12T14:04:19;1.02;;;1.02;;
16262;SDS011;8239;48.594;8.598;2022-09-12T14:07:10;0.95;;;0.95;;
16262;SDS011;8239;48.594;8.598;2022-09-12T14:09:40;0.95;;;0.95;;
16262;SDS011;8239;48.594;8.598;2022-09-12T14:12:11;1.13;;;1.02;;
16262;SDS011;8239;48.594;8.598;2022-09-12T14:14:46;0.98;;;0.98;;
16262;SDS011;8239;48.594;8.598;2022-09-12T14:17:15;0.90;;;0.90;;
16262;SDS011;8239;48.594;8.598;2022-09-12T14:19:44;1.08;;;1.00;;
16262;SDS011;8239;48.594;8.598;2022-09-12T14:22:13;1.55;;;1.10;;
16262;SDS011;8239;48.594;8.598;2022-09-12T14:24:42;1.27;;;1.00;;
16262;SDS011;8239;48.594;8.598;2022-09-12T14:27:15;0.90;;;0.80;;
16262;SDS011;8239;48.594;8.598;2022-09-12T14:29:43;1.02;;;1.02;;
16262;SDS011;8239;48.594;8.598;2022-09-12T14:32:17;0.90;;;0.90;;
16262;SDS011;8239;48.594;8.598;2022-09-12T14:35:03;0.90;;;0.90;;
16262;SDS011;8239;48.594;8.598;2022-09-12T14:37:48;0.90;;;0.90;;
16262;SDS011;8239;48.594;8.598;2022-09-12T14:40:17;0.88;;;0.85;;
16262;SDS011;8239;48.594;8.598;2022-09-12T14:42:46;0.95;;;0.95;;
16262;SDS011;8239;48.594;8.598;2022-09-12T14:45:15;0.70;;;0.70;;
16262;SDS011;8239;48.594;8.598;2022-09-12T14:47:46;2.42;;;0.98;;
16262;SDS011;8239;48.594;8.598;2022-09-12T14:50:15;0.80;;;0.80;;
16262;SDS011;8239;48.594;8.598;2022-09-12T14:52:44;0.90;;;0.90;;
16262;SDS011;8239;48.594;8.598;2022-09-12T14:55:27;0.85;;;0.85;;
16262;SDS011;8239;48.594;8.598;2022-09-12T14:58:15;1.02;;;0.85;;
16262;SDS011;8239;48.594;8.598;2022-09-12T15:00:53;0.80;;;0.80;;
16262;SDS011;8239;48.594;8.598;2022-09-12T15:03:24;0.90;;;0.90;;
16262;SDS011;8239;48.594;8.598;2022-09-12T15:05:55;1.05;;;1.05;;
16262;SDS011;8239;48.594;8.598;2022-09-12T15:08:25;1.00;;;1.00;;
16262;SDS011;8239;48.594;8.598;2022-09-12T15:10:52;0.80;;;0.77;;
16262;SDS011;8239;48.594;8.598;2022-09-12T15:13:20;0.90;;;0.90;;
16262;SDS011;8239;48.594;8.598;2022-09-12T15:15:50;0.85;;;0.82;;
16262;SDS011;8239;48.594;8.598;2022-09-12T15:18:19;1.10;;;1.00;;
16262;SDS011;8239;48.594;8.598;2022-09-12T15:20:47;0.90;;;0.90;;
16262;SDS011;8239;48.594;8.598;2022-09-12T15:23:18;1.10;;;1.00;;
16262;SDS011;8239;48.594;8.598;2022-09-12T15:25:51;1.10;;;1.00;;
16262;SDS011;8239;48.594;8.598;2022-09-12T15:28:20;1.10;;;0.80;;
16262;SDS011;8239;48.594;8.598;2022-09-12T15:30:48;0.90;;;0.90;;
16262;SDS011;8239;48.594;8.598;2022-09-12T15:33:18;0.98;;;0.98;;
16262;SDS011;8239;48.594;8.598;2022-09-12T15:35:47;0.90;;;0.90;;
16262;SDS011;8239;48.594;8.598;2022-09-12T15:38:14;0.98;;;0.98;;
16262;SDS011;8239;48.594;8.598;2022-09-12T15:40:41;1.17;;;0.80;;
16262;SDS011;8239;48.594;8.598;2022-09-12T15:43:10;0.85;;;0.85;;
16262;SDS011;8239;48.594;8.598;2022-09-12T15:45:40;0.73;;;0.73;;
16262;SDS011;8239;48.594;8.598;2022-09-12T15:48:08;0.90;;;0.90;;
16262;SDS011;8239;48.594;8.598;2022-09-12T15:50:35;1.40;;;0.90;;
16262;SDS011;8239;48.594;8.598;2022-09-12T15:53:02;0.95;;;0.95;;
16262;SDS011;8239;48.594;8.598;2022-09-12T15:55:30;0.90;;;0.90;;
16262;SDS011;8239;48.594;8.598;2022-09-12T15:57:57;1.10;;;0.90;;
16262;SDS011;8239;48.594;8.598;2022-09-12T16:00:26;1.00;;;1.00;;
16262;SDS011;8239;48.594;8.598;2022-09-12T16:02:53;1.02;;;1.02;;
16262;SDS011;8239;48.594;8.598;2022-09-12T16:05:21;1.05;;;1.00;;
16262;SDS011;8239;48.594;8.598;2022-09-12T16:07:50;1.13;;;1.00;;
16262;SDS011;8239;48.594;8.598;2022-09-12T16:10:19;1.00;;;1.00;;
16262;SDS011;8239;48.594;8.598;2022-09-12T16:12:47;0.90;;;0.90;;
16262;SDS011;8239;48.594;8.598;2022-09-12T16:15:16;1.13;;;1.02;;
16262;SDS011;8239;48.594;8.598;2022-09-12T16:17:46;1.10;;;1.00;;
16262;SDS011;8239;48.594;8.598;2022-09-12T16:20:13;1.38;;;1.00;;
16262;SDS011;8239;48.594;8.598;2022-09-12T16:22:40;1.90;;;1.02;;
16262;SDS011;8239;48.594;8.598;2022-09-12T16:25:08;1.00;;;0.90;;
16262;SDS011;8239;48.594;8.598;2022-09-12T16:27:35;1.23;;;1.10;;
16262;SDS011;8239;48.594;8.598;2022-09-12T16:30:03;1.25;;;1.15;;
16262;SDS011;8239;48.594;8.598;2022-09-12T16:32:31;1.20;;;0.98;;
16262;SDS011;8239;48.594;8.598;2022-09-12T16:34:59;1.10;;;1.10;;
16262;SDS011;8239;48.594;8.598;2022-09-12T16:37:26;1.20;;;1.20;;
16262;SDS011;8239;48.594;8.598;2022-09-12T16:39:53;1.98;;;1.88;;
16262;SDS011;8239;48.594;8.598;2022-09-12T16:42:20;1.00;;;1.00;;